sensor_id;sensor_type;location;lat;lon;timestamp;pressure;altitude;pressure_sealevel;temperature
19568;BMP280;9930;49.240;8.548;2023-10-13T00:02:12;100486.38;;;21.75
19568;BMP280;9930;49.240;8.548;2023-10-13T00:04:42;100494.97;;;21.80
19568;BMP280;9930;49.240;8.548;2023-10-13T00:07:09;100481.19;;;21.73
19568;BMP280;9930;49.240;8.548;2023-10-13T00:09:37;100482.91;;;21.76
19568;BMP280;9930;49.240;8.548;2023-10-13T00:12:08;100486.34;;;21.76
19568;BMP280;9930;49.240;8.548;2023-10-13T00:14:42;100488.94;;;21.76
19568;BMP280;9930;49.240;8.548;2023-10-13T00:17:12;100490.69;;;21.74
19568;BMP280;9930;49.240;8.548;2023-10-13T00:19:45;100492.44;;;21.71
19568;BMP280;9930;49.240;8.548;2023-10-13T00:22:17;100500.25;;;21.71
19568;BMP280;9930;49.240;8.548;2023-10-13T00:24:45;100496.78;;;21.69
19568;BMP280;9930;49.240;8.548;2023-10-13T00:27:14;100487.25;;;21.69
19568;BMP280;9930;49.240;8.548;2023-10-13T00:29:57;100478.66;;;21.61
19568;BMP280;9930;49.240;8.548;2023-10-13T00:33:01;100487.31;;;21.63
19568;BMP280;9930;49.240;8.548;2023-10-13T00:35:28;100485.59;;;21.62
19568;BMP280;9930;49.240;8.548;2023-10-13T00:37:58;100470.91;;;21.55
19568;BMP280;9930;49.240;8.548;2023-10-13T00:40:31;100463.16;;;21.49
19568;BMP280;9930;49.240;8.548;2023-10-13T00:43:03;100475.22;;;21.57
19568;BMP280;9930;49.240;8.548;2023-10-13T00:45:53;100470.91;;;21.56
19568;BMP280;9930;49.240;8.548;2023-10-13T00:48:34;100462.31;;;21.48
19568;BMP280;9930;49.240;8.548;2023-10-13T00:51:08;100469.22;;;21.52
19568;BMP280;9930;49.240;8.548;2023-10-13T00:53:41;100466.63;;;21.49
19568;BMP280;9930;49.240;8.548;2023-10-13T00:56:15;100458.84;;;21.46
19568;BMP280;9930;49.240;8.548;2023-10-13T00:58:53;100460.63;;;21.43
19568;BMP280;9930;49.240;8.548;2023-10-13T01:01:24;100452.88;;;21.33
19568;BMP280;9930;49.240;8.548;2023-10-13T01:03:56;100459.78;;;21.39
19568;BMP280;9930;49.240;8.548;2023-10-13T01:06:27;100463.25;;;21.37
19568;BMP280;9930;49.240;8.548;2023-10-13T01:08:59;100466.72;;;21.34
19568;BMP280;9930;49.240;8.548;2023-10-13T01:11:26;100449.47;;;21.24
19568;BMP280;9930;49.240;8.548;2023-10-13T01:13:55;100453.78;;;21.25
19568;BMP280;9930;49.240;8.548;2023-10-13T01:16:22;100450.34;;;21.18
19568;BMP280;9930;49.240;8.548;2023-10-13T01:18:54;100454.66;;;21.21
19568;BMP280;9930;49.240;8.548;2023-10-13T01:21:26;100455.53;;;21.18
19568;BMP280;9930;49.240;8.548;2023-10-13T01:23:55;100446.88;;;21.16
19568;BMP280;9930;49.240;8.548;2023-10-13T01:26:23;100451.22;;;21.16
19568;BMP280;9930;49.240;8.548;2023-10-13T01:28:58;100436.53;;;21.12
19568;BMP280;9930;49.240;8.548;2023-10-13T01:31:23;100442.56;;;21.15
19568;BMP280;9930;49.240;8.548;2023-10-13T01:34:02;100432.22;;;21.11
19568;BMP280;9930;49.240;8.548;2023-10-13T01:36:29;100428.78;;;21.09
19568;BMP280;9930;49.240;8.548;2023-10-13T01:39:01;100439.97;;;21.15
19568;BMP280;9930;49.240;8.548;2023-10-13T01:41:27;100431.34;;;21.15
19568;BMP280;9930;49.240;8.548;2023-10-13T01:43:56;100425.28;;;21.16
19568;BMP280;9930;49.240;8.548;2023-10-13T01:46:23;100420.13;;;21.10
19568;BMP280;9930;49.240;8.548;2023-10-13T01:48:48;100420.97;;;21.13
19568;BMP280;9930;49.240;8.548;2023-10-13T01:51:17;100408.91;;;21.08
19568;BMP280;9930;49.240;8.548;2023-10-13T01:53:42;100412.38;;;21.05
19568;BMP280;9930;49.240;8.548;2023-10-13T01:56:11;100408.91;;;21.08
19568;BMP280;9930;49.240;8.548;2023-10-13T01:58:38;100418.41;;;21.09
19568;BMP280;9930;49.240;8.548;2023-10-13T02:01:09;100408.06;;;21.02
19568;BMP280;9930;49.240;8.548;2023-10-13T02:03:36;100413.25;;;21.04
19568;BMP280;9930;49.240;8.548;2023-10-13T02:06:14;100416.69;;;21.03
19568;BMP280;9930;49.240;8.548;2023-10-13T02:08:51;100402.91;;;20.98
19568;BMP280;9930;49.240;8.548;2023-10-13T02:11:22;100395.16;;;20.92
19568;BMP280;9930;49.240;8.548;2023-10-13T02:13:51;100397.72;;;20.96
19568;BMP280;9930;49.240;8.548;2023-10-13T02:16:19;100398.59;;;20.94
19568;BMP280;9930;49.240;8.548;2023-10-13T02:18:49;100398.59;;;20.92
19568;BMP280;9930;49.240;8.548;2023-10-13T02:21:19;100403.81;;;20.89
19568;BMP280;9930;49.240;8.548;2023-10-13T02:23:45;100402.94;;;20.89
19568;BMP280;9930;49.240;8.548;2023-10-13T02:26:30;100402.09;;;20.85
19568;BMP280;9930;49.240;8.548;2023-10-13T02:29:06;100401.25;;;20.83
19568;BMP280;9930;49.240;8.548;2023-10-13T02:31:43;100383.16;;;20.74
19568;BMP280;9930;49.240;8.548;2023-10-13T02:34:20;100395.28;;;20.72
19568;BMP280;9930;49.240;8.548;2023-10-13T02:36:50;100388.38;;;20.69
19568;BMP280;9930;49.240;8.548;2023-10-13T02:39:20;100392.69;;;20.72
19568;BMP280;9930;49.240;8.548;2023-10-13T02:41:51;100374.56;;;20.64
19568;BMP280;9930;49.240;8.548;2023-10-13T02:44:17;100377.16;;;20.63
19568;BMP280;9930;49.240;8.548;2023-10-13T02:47:03;100383.22;;;20.65
19568;BMP280;9930;49.240;8.548;2023-10-13T02:49:40;100368.56;;;20.56
19568;BMP280;9930;49.240;8.548;2023-10-13T02:52:13;100383.22;;;20.63
19568;BMP280;9930;49.240;8.548;2023-10-13T02:54:42;100378.91;;;20.62
19568;BMP280;9930;49.240;8.548;2023-10-13T02:57:18;100373.72;;;20.62
19568;BMP280;9930;49.240;8.548;2023-10-13T02:59:48;100373.72;;;20.62
19568;BMP280;9930;49.240;8.548;2023-10-13T03:02:22;100378.91;;;20.62
19568;BMP280;9930;49.240;8.548;2023-10-13T03:04:56;100374.59;;;20.61
19568;BMP280;9930;49.240;8.548;2023-10-13T03:07:35;100374.56;;;20.63
19568;BMP280;9930;49.240;8.548;2023-10-13T03:10:03;100361.63;;;20.60
19568;BMP280;9930;49.240;8.548;2023-10-13T03:12:43;100365.94;;;20.62
19568;BMP280;9930;49.240;8.548;2023-10-13T03:15:13;100369.41;;;20.61
19568;BMP280;9930;49.240;8.548;2023-10-13T03:17:45;100364.22;;;20.60
19568;BMP280;9930;49.240;8.548;2023-10-13T03:20:17;100365.97;;;20.56
19568;BMP280;9930;49.240;8.548;2023-10-13T03:22:53;100362.53;;;20.53
19568;BMP280;9930;49.240;8.548;2023-10-13T03:25:19;100348.72;;;20.45
19568;BMP280;9930;49.240;8.548;2023-10-13T03:28:10;100356.50;;;20.45
19568;BMP280;9930;49.240;8.548;2023-10-13T03:30:39;100359.97;;;20.41
19568;BMP280;9930;49.240;8.548;2023-10-13T03:33:11;100356.50;;;20.37
19568;BMP280;9930;49.240;8.548;2023-10-13T03:35:52;100360.84;;;20.32
19568;BMP280;9930;49.240;8.548;2023-10-13T03:38:33;100358.25;;;20.27
19568;BMP280;9930;49.240;8.548;2023-10-13T03:41:06;100351.38;;;20.20
19568;BMP280;9930;49.240;8.548;2023-10-13T03:43:34;100357.41;;;20.22
19568;BMP280;9930;49.240;8.548;2023-10-13T03:46:34;100359.13;;;20.19
19568;BMP280;9930;49.240;8.548;2023-10-13T03:49:02;100353.97;;;20.11
19568;BMP280;9930;49.240;8.548;2023-10-13T03:51:31;100348.81;;;20.08
19568;BMP280;9930;49.240;8.548;2023-10-13T03:53:59;100355.72;;;20.11
19568;BMP280;9930;49.240;8.548;2023-10-13T03:56:32;100340.19;;;20.01
19568;BMP280;9930;49.240;8.548;2023-10-13T03:59:04;100337.59;;;19.98
19568;BMP280;9930;49.240;8.548;2023-10-13T04:01:45;100336.75;;;19.99
19568;BMP280;9930;49.240;8.548;2023-10-13T04:04:18;100340.19;;;20.00
19568;BMP280;9930;49.240;8.548;2023-10-13T04:07:03;100324.69;;;19.92
19568;BMP280;9930;49.240;8.548;2023-10-13T04:09:41;100331.56;;;19.98
19568;BMP280;9930;49.240;8.548;2023-10-13T04:12:12;100315.19;;;19.93
19568;BMP280;9930;49.240;8.548;2023-10-13T04:14:45;100326.38;;;19.99
19568;BMP280;9930;49.240;8.548;2023-10-13T04:17:29;100333.28;;;19.99
19568;BMP280;9930;49.240;8.548;2023-10-13T04:20:00;100330.72;;;19.99
19568;BMP280;9930;49.240;8.548;2023-10-13T04:28:15;100306.56;;;19.89
19568;BMP280;9930;49.240;8.548;2023-10-13T04:31:03;100315.19;;;19.94
19568;BMP280;9930;49.240;8.548;2023-10-13T04:33:38;100302.25;;;19.94
19568;BMP280;9930;49.240;8.548;2023-10-13T04:36:18;100306.56;;;19.92
19568;BMP280;9930;49.240;8.548;2023-10-13T04:38:56;100305.69;;;19.92
19568;BMP280;9930;49.240;8.548;2023-10-13T04:41:42;100302.25;;;19.90
19568;BMP280;9930;49.240;8.548;2023-10-13T04:44:16;100288.47;;;19.82
19568;BMP280;9930;49.240;8.548;2023-10-13T04:47:01;100283.28;;;19.82
19568;BMP280;9930;49.240;8.548;2023-10-13T04:49:34;100291.03;;;19.86
19568;BMP280;9930;49.240;8.548;2023-10-13T04:52:03;100294.50;;;19.85
19568;BMP280;9930;49.240;8.548;2023-10-13T04:54:32;100293.63;;;19.85
19568;BMP280;9930;49.240;8.548;2023-10-13T04:57:00;100301.41;;;19.85
19568;BMP280;9930;49.240;8.548;2023-10-13T04:59:49;100298.81;;;19.79
19568;BMP280;9930;49.240;8.548;2023-10-13T05:02:33;100300.53;;;19.77
19568;BMP280;9930;49.240;8.548;2023-10-13T05:05:14;100310.91;;;19.73
19568;BMP280;9930;49.240;8.548;2023-10-13T05:07:45;100305.72;;;19.70
19568;BMP280;9930;49.240;8.548;2023-10-13T05:10:31;100307.47;;;19.67
19568;BMP280;9930;49.240;8.548;2023-10-13T05:13:16;100306.59;;;19.62
19568;BMP280;9930;49.240;8.548;2023-10-13T05:16:00;100303.16;;;19.60
19568;BMP280;9930;49.240;8.548;2023-10-13T05:18:45;100299.72;;;19.56
19568;BMP280;9930;49.240;8.548;2023-10-13T05:21:30;100303.16;;;19.54
19568;BMP280;9930;49.240;8.548;2023-10-13T05:24:18;100294.50;;;19.50
19568;BMP280;9930;49.240;8.548;2023-10-13T05:27:02;100304.00;;;19.48
19568;BMP280;9930;49.240;8.548;2023-10-13T05:29:47;100298.81;;;19.45
19568;BMP280;9930;49.240;8.548;2023-10-13T05:32:32;100281.59;;;19.35
19568;BMP280;9930;49.240;8.548;2023-10-13T05:35:20;100283.31;;;19.34
19568;BMP280;9930;49.240;8.548;2023-10-13T05:38:04;100285.91;;;19.33
19568;BMP280;9930;49.240;8.548;2023-10-13T05:41:02;100287.63;;;19.32
19568;BMP280;9930;49.240;8.548;2023-10-13T05:43:46;100292.78;;;19.29
19568;BMP280;9930;49.240;8.548;2023-10-13T05:46:32;100291.94;;;19.26
19568;BMP280;9930;49.240;8.548;2023-10-13T05:49:08;100291.06;;;19.24
19568;BMP280;9930;49.240;8.548;2023-10-13T05:51:34;100287.63;;;19.22
19568;BMP280;9930;49.240;8.548;2023-10-13T05:54:21;100293.66;;;19.21
19568;BMP280;9930;49.240;8.548;2023-10-13T05:56:49;100280.72;;;19.15
19568;BMP280;9930;49.240;8.548;2023-10-13T05:59:36;100283.31;;;19.18
19568;BMP280;9930;49.240;8.548;2023-10-13T06:02:23;100283.31;;;19.16
19568;BMP280;9930;49.240;8.548;2023-10-13T06:05:10;100283.31;;;19.15
19568;BMP280;9930;49.240;8.548;2023-10-13T06:07:55;100268.66;;;19.06
19568;BMP280;9930;49.240;8.548;2023-10-13T06:10:40;100279.00;;;19.11
19568;BMP280;9930;49.240;8.548;2023-10-13T06:13:25;100279.84;;;19.11
19568;BMP280;9930;49.240;8.548;2023-10-13T06:16:16;100277.28;;;19.13
19568;BMP280;9930;49.240;8.548;2023-10-13T06:19:01;100279.00;;;19.11
19568;BMP280;9930;49.240;8.548;2023-10-13T06:21:46;100288.47;;;19.13
19568;BMP280;9930;49.240;8.548;2023-10-13T06:24:31;100281.56;;;19.04
19568;BMP280;9930;49.240;8.548;2023-10-13T06:27:16;100284.16;;;19.12
19568;BMP280;9930;49.240;8.548;2023-10-13T06:30:01;100288.47;;;19.16
19568;BMP280;9930;49.240;8.548;2023-10-13T06:32:29;100280.72;;;19.18
19568;BMP280;9930;49.240;8.548;2023-10-13T06:34:56;100269.50;;;19.14
19568;BMP280;9930;49.240;8.548;2023-10-13T06:37:26;100274.69;;;19.23
19568;BMP280;9930;49.240;8.548;2023-10-13T06:40:00;100272.09;;;19.23
19568;BMP280;9930;49.240;8.548;2023-10-13T06:42:36;100267.78;;;19.22
19568;BMP280;9930;49.240;8.548;2023-10-13T06:45:09;100284.16;;;19.32
19568;BMP280;9930;49.240;8.548;2023-10-13T06:47:38;100282.44;;;19.34
19568;BMP280;9930;49.240;8.548;2023-10-13T06:50:14;100285.03;;;19.40
19568;BMP280;9930;49.240;8.548;2023-10-13T06:52:51;100280.72;;;19.39
19568;BMP280;9930;49.240;8.548;2023-10-13T06:55:21;100286.75;;;19.50
19568;BMP280;9930;49.240;8.548;2023-10-13T06:57:56;100285.06;;;19.55
19568;BMP280;9930;49.240;8.548;2023-10-13T07:00:26;100294.53;;;19.64
19568;BMP280;9930;49.240;8.548;2023-10-13T07:03:01;100279.88;;;19.67
19568;BMP280;9930;49.240;8.548;2023-10-13T07:05:39;100288.47;;;19.82
19568;BMP280;9930;49.240;8.548;2023-10-13T07:08:08;100270.34;;;19.80
19568;BMP280;9930;49.240;8.548;2023-10-13T07:10:51;100274.63;;;19.92
19568;BMP280;9930;49.240;8.548;2023-10-13T07:13:31;100279.78;;;20.02
19568;BMP280;9930;49.240;8.548;2023-10-13T07:16:02;100286.66;;;20.13
19568;BMP280;9930;49.240;8.548;2023-10-13T07:18:38;100294.38;;;20.25
19568;BMP280;9930;49.240;8.548;2023-10-13T07:21:16;100294.34;;;20.32
19568;BMP280;9930;49.240;8.548;2023-10-13T07:23:42;100290.88;;;20.38
19568;BMP280;9930;49.240;8.548;2023-10-13T07:26:22;100282.22;;;20.47
19568;BMP280;9930;49.240;8.548;2023-10-13T07:28:49;100280.50;;;20.49
19568;BMP280;9930;49.240;8.548;2023-10-13T07:31:17;100279.59;;;20.57
19568;BMP280;9930;49.240;8.548;2023-10-13T07:33:47;100276.09;;;20.61
19568;BMP280;9930;49.240;8.548;2023-10-13T07:36:13;100281.22;;;20.72
19568;BMP280;9930;49.240;8.548;2023-10-13T07:38:55;100288.91;;;20.84
19568;BMP280;9930;49.240;8.548;2023-10-13T07:41:50;100291.44;;;20.92
19568;BMP280;9930;49.240;8.548;2023-10-13T07:44:24;100280.16;;;20.99
19568;BMP280;9930;49.240;8.548;2023-10-13T07:46:53;100287.00;;;21.08
19568;BMP280;9930;49.240;8.548;2023-10-13T07:49:37;100286.97;;;21.14
19568;BMP280;9930;49.240;8.548;2023-10-13T07:52:11;100272.25;;;21.16
19568;BMP280;9930;49.240;8.548;2023-10-13T07:54:54;100304.97;;;21.37
19568;BMP280;9930;49.240;8.548;2023-10-13T07:57:39;100288.50;;;21.42
19568;BMP280;9930;49.240;8.548;2023-10-13T08:00:24;100288.38;;;21.54
19568;BMP280;9930;49.240;8.548;2023-10-13T08:03:09;100282.25;;;21.63
19568;BMP280;9930;49.240;8.548;2023-10-13T08:05:44;100279.53;;;21.74
19568;BMP280;9930;49.240;8.548;2023-10-13T08:08:28;100261.34;;;21.77
19568;BMP280;9930;49.240;8.548;2023-10-13T08:11:14;100268.97;;;21.92
19568;BMP280;9930;49.240;8.548;2023-10-13T08:13:55;100274.06;;;22.03
19568;BMP280;9930;49.240;8.548;2023-10-13T08:16:31;100265.31;;;22.11
19568;BMP280;9930;49.240;8.548;2023-10-13T08:19:25;100241.06;;;22.12
19568;BMP280;9930;49.240;8.548;2023-10-13T08:22:02;100255.53;;;22.32
19568;BMP280;9930;49.240;8.548;2023-10-13T08:24:48;100250.31;;;22.35
19568;BMP280;9930;49.240;8.548;2023-10-13T08:27:18;100244.97;;;22.44
19568;BMP280;9930;49.240;8.548;2023-10-13T08:30:05;100256.91;;;22.58
19568;BMP280;9930;49.240;8.548;2023-10-13T08:32:50;100247.31;;;22.63
19568;BMP280;9930;49.240;8.548;2023-10-13T08:35:32;100247.06;;;22.79
19568;BMP280;9930;49.240;8.548;2023-10-13T08:38:10;100236.63;;;22.85
19568;BMP280;9930;49.240;8.548;2023-10-13T08:40:44;100245.97;;;22.97
19568;BMP280;9930;49.240;8.548;2023-10-13T08:43:34;100234.56;;;23.05
19568;BMP280;9930;49.240;8.548;2023-10-13T08:46:10;100252.50;;;23.22
19568;BMP280;9930;49.240;8.548;2023-10-13T08:48:59;100251.41;;;23.35
19568;BMP280;9930;49.240;8.548;2023-10-13T08:51:41;100252.97;;;23.45
19568;BMP280;9930;49.240;8.548;2023-10-13T08:54:15;100238.09;;;23.52
19568;BMP280;9930;49.240;8.548;2023-10-13T08:57:00;100239.53;;;23.70
19568;BMP280;9930;49.240;8.548;2023-10-13T08:59:46;100230.75;;;23.75
19568;BMP280;9930;49.240;8.548;2023-10-13T09:02:40;100240.75;;;23.95
19568;BMP280;9930;49.240;8.548;2023-10-13T09:05:32;100226.72;;;24.02
19568;BMP280;9930;49.240;8.548;2023-10-13T09:08:28;100231.56;;;24.20
19568;BMP280;9930;49.240;8.548;2023-10-13T09:11:12;100233.09;;;24.31
19568;BMP280;9930;49.240;8.548;2023-10-13T09:13:38;100242.38;;;24.44
19568;BMP280;9930;49.240;8.548;2023-10-13T09:16:14;100243.88;;;24.54
19568;BMP280;9930;49.240;8.548;2023-10-13T09:19:13;100234.03;;;24.67
19568;BMP280;9930;49.240;8.548;2023-10-13T09:21:42;100220.84;;;24.73
19568;BMP280;9930;49.240;8.548;2023-10-13T09:24:14;100226.53;;;24.90
19568;BMP280;9930;49.240;8.548;2023-10-13T09:26:58;100219.41;;;24.98
19568;BMP280;9930;49.240;8.548;2023-10-13T09:29:29;100213.06;;;25.08
19568;BMP280;9930;49.240;8.548;2023-10-13T09:32:04;100214.63;;;25.15
19568;BMP280;9930;49.240;8.548;2023-10-13T09:34:37;100207.28;;;25.30
19568;BMP280;9930;49.240;8.548;2023-10-13T09:37:06;100197.63;;;25.33
19568;BMP280;9930;49.240;8.548;2023-10-13T09:39:34;100195.66;;;25.41
19568;BMP280;9930;49.240;8.548;2023-10-13T09:42:11;100195.38;;;25.52
19568;BMP280;9930;49.240;8.548;2023-10-13T09:44:41;100188.25;;;25.59
19568;BMP280;9930;49.240;8.548;2023-10-13T09:47:20;100194.81;;;25.73
19568;BMP280;9930;49.240;8.548;2023-10-13T09:49:59;100186.78;;;25.81
19568;BMP280;9930;49.240;8.548;2023-10-13T09:52:32;100177.91;;;25.87
19568;BMP280;9930;49.240;8.548;2023-10-13T09:55:26;100170.78;;;25.92
19568;BMP280;9930;49.240;8.548;2023-10-13T09:58:05;100171.25;;;26.04
19568;BMP280;9930;49.240;8.548;2023-10-13T10:00:57;100161.41;;;26.12
19568;BMP280;9930;49.240;8.548;2023-10-13T10:03:32;100161.19;;;26.20
19568;BMP280;9930;49.240;8.548;2023-10-13T10:06:09;100153.16;;;26.26
19568;BMP280;9930;49.240;8.548;2023-10-13T10:08:43;100130.38;;;26.30
19568;BMP280;9930;49.240;8.548;2023-10-13T10:17:13;100132.03;;;26.60
19568;BMP280;9930;49.240;8.548;2023-10-13T10:19:47;100142.91;;;26.74
19568;BMP280;9930;49.240;8.548;2023-10-13T10:22:13;100129.72;;;26.77
19568;BMP280;9930;49.240;8.548;2023-10-13T10:24:57;100142.28;;;26.93
19568;BMP280;9930;49.240;8.548;2023-10-13T10:27:34;100133.47;;;26.95
19568;BMP280;9930;49.240;8.548;2023-10-13T10:30:00;100132.19;;;27.08
19568;BMP280;9930;49.240;8.548;2023-10-13T10:32:33;100125.97;;;27.11
19568;BMP280;9930;49.240;8.548;2023-10-13T10:35:08;100131.59;;;27.25
19568;BMP280;9930;49.240;8.548;2023-10-13T10:37:51;100127.91;;;27.31
19568;BMP280;9930;49.240;8.548;2023-10-13T10:40:32;100121.47;;;27.39
19568;BMP280;9930;49.240;8.548;2023-10-13T10:43:16;100129.56;;;27.57
19568;BMP280;9930;49.240;8.548;2023-10-13T10:45:49;100126.53;;;27.69
19568;BMP280;9930;49.240;8.548;2023-10-13T10:48:15;100113.19;;;27.75
19568;BMP280;9930;49.240;8.548;2023-10-13T10:50:56;100112.56;;;27.92
19568;BMP280;9930;49.240;8.548;2023-10-13T10:53:33;100115.56;;;28.04
19568;BMP280;9930;49.240;8.548;2023-10-13T10:56:16;100106.47;;;28.13
19568;BMP280;9930;49.240;8.548;2023-10-13T10:59:01;100119.06;;;28.27
19568;BMP280;9930;49.240;8.548;2023-10-13T11:01:31;100110.03;;;28.34
19568;BMP280;9930;49.240;8.548;2023-10-13T11:04:07;100102.84;;;28.39
19568;BMP280;9930;49.240;8.548;2023-10-13T11:06:55;100104.34;;;28.45
19568;BMP280;9930;49.240;8.548;2023-10-13T11:09:44;100100.63;;;28.50
19568;BMP280;9930;49.240;8.548;2023-10-13T11:12:11;100096.19;;;28.52
19568;BMP280;9930;49.240;8.548;2023-10-13T11:15:11;100080.91;;;28.62
19568;BMP280;9930;49.240;8.548;2023-10-13T11:17:52;100088.19;;;28.76
19568;BMP280;9930;49.240;8.548;2023-10-13T11:20:21;100073.09;;;28.81
19568;BMP280;9930;49.240;8.548;2023-10-13T11:22:59;100065.13;;;28.84
19568;BMP280;9930;49.240;8.548;2023-10-13T11:25:34;100078.25;;;29.04
19568;BMP280;9930;49.240;8.548;2023-10-13T11:28:14;100070.59;;;29.18
19568;BMP280;9930;49.240;8.548;2023-10-13T11:30:48;100071.75;;;29.31
19568;BMP280;9930;49.240;8.548;2023-10-13T11:33:19;100066.75;;;29.46
19568;BMP280;9930;49.240;8.548;2023-10-13T11:35:49;100048.78;;;29.55
19568;BMP280;9930;49.240;8.548;2023-10-13T11:38:31;100055.47;;;29.62
19568;BMP280;9930;49.240;8.548;2023-10-13T11:41:16;100044.81;;;29.65
19568;BMP280;9930;49.240;8.548;2023-10-13T11:43:51;100039.13;;;29.75
19568;BMP280;9930;49.240;8.548;2023-10-13T11:46:20;100041.81;;;29.73
19568;BMP280;9930;49.240;8.548;2023-10-13T11:49:02;100038.91;;;29.79
19568;BMP280;9930;49.240;8.548;2023-10-13T11:51:45;100039.97;;;29.75
19568;BMP280;9930;49.240;8.548;2023-10-13T11:54:19;100028.53;;;29.76
19568;BMP280;9930;49.240;8.548;2023-10-13T11:56:51;100037.97;;;29.80
19568;BMP280;9930;49.240;8.548;2023-10-13T11:59:17;100027.47;;;29.80
19568;BMP280;9930;49.240;8.548;2023-10-13T12:01:53;100019.72;;;29.77
19568;BMP280;9930;49.240;8.548;2023-10-13T12:04:40;100021.50;;;29.77
19568;BMP280;9930;49.240;8.548;2023-10-13T12:07:09;100011.97;;;29.74
19568;BMP280;9930;49.240;8.548;2023-10-13T12:09:54;100012.06;;;29.73
19568;BMP280;9930;49.240;8.548;2023-10-13T12:12:22;100009.34;;;29.74
19568;BMP280;9930;49.240;8.548;2023-10-13T12:14:48;100000.06;;;29.67
19568;BMP280;9930;49.240;8.548;2023-10-13T12:17:27;100000.06;;;29.67
19568;BMP280;9930;49.240;8.548;2023-10-13T12:20:05;100001.69;;;29.70
19568;BMP280;9930;49.240;8.548;2023-10-13T12:22:32;99987.00;;;29.65
19568;BMP280;9930;49.240;8.548;2023-10-13T12:25:08;99983.13;;;29.73
19568;BMP280;9930;49.240;8.548;2023-10-13T12:27:55;99983.13;;;29.73
19568;BMP280;9930;49.240;8.548;2023-10-13T12:30:38;99977.72;;;29.76
19568;BMP280;9930;49.240;8.548;2023-10-13T12:33:21;99966.22;;;29.78
19568;BMP280;9930;49.240;8.548;2023-10-13T12:36:01;99966.00;;;29.83
19568;BMP280;9930;49.240;8.548;2023-10-13T12:38:39;99964.91;;;29.87
19568;BMP280;9930;49.240;8.548;2023-10-13T12:43:59;99950.31;;;29.98
19568;BMP280;9930;49.240;8.548;2023-10-13T12:46:44;99961.25;;;30.08
19568;BMP280;9930;49.240;8.548;2023-10-13T12:49:28;99940.06;;;30.11
19568;BMP280;9930;49.240;8.548;2023-10-13T12:52:14;99957.00;;;30.23
19568;BMP280;9930;49.240;8.548;2023-10-13T12:55:07;99948.09;;;30.25
19568;BMP280;9930;49.240;8.548;2023-10-13T12:57:37;99952.13;;;30.33
19568;BMP280;9930;49.240;8.548;2023-10-13T13:00:13;99941.59;;;30.33
19568;BMP280;9930;49.240;8.548;2023-10-13T13:02:42;99951.88;;;30.37
19568;BMP280;9930;49.240;8.548;2023-10-13T13:05:08;99944.00;;;30.37
19568;BMP280;9930;49.240;8.548;2023-10-13T13:07:41;99938.66;;;30.39
19568;BMP280;9930;49.240;8.548;2023-10-13T13:10:14;99929.38;;;30.32
19568;BMP280;9930;49.240;8.548;2023-10-13T13:12:43;99934.72;;;30.30
19568;BMP280;9930;49.240;8.548;2023-10-13T13:15:11;99943.31;;;30.34
19568;BMP280;9930;49.240;8.548;2023-10-13T13:17:40;99931.22;;;30.29
19568;BMP280;9930;49.240;8.548;2023-10-13T13:20:07;99932.31;;;30.25
19568;BMP280;9930;49.240;8.548;2023-10-13T13:22:40;99921.41;;;30.16
19568;BMP280;9930;49.240;8.548;2023-10-13T13:25:06;99922.41;;;30.13
19568;BMP280;9930;49.240;8.548;2023-10-13T13:27:34;99917.47;;;30.07
19568;BMP280;9930;49.240;8.548;2023-10-13T13:30:07;99911.03;;;29.95
19568;BMP280;9930;49.240;8.548;2023-10-13T13:32:39;99910.16;;;29.95
19568;BMP280;9930;49.240;8.548;2023-10-13T13:35:09;99893.94;;;29.87
19568;BMP280;9930;49.240;8.548;2023-10-13T13:37:41;99889.44;;;29.89
19568;BMP280;9930;49.240;8.548;2023-10-13T13:40:10;99886.13;;;29.85
19568;BMP280;9930;49.240;8.548;2023-10-13T13:42:48;99891.06;;;29.91
19568;BMP280;9930;49.240;8.548;2023-10-13T13:45:15;99884.09;;;29.90
19568;BMP280;9930;49.240;8.548;2023-10-13T13:47:49;99877.16;;;29.89
19568;BMP280;9930;49.240;8.548;2023-10-13T13:50:26;99866.63;;;29.89
19568;BMP280;9930;49.240;8.548;2023-10-13T13:52:54;99873.66;;;29.89
19568;BMP280;9930;49.240;8.548;2023-10-13T13:55:26;99856.56;;;29.80
19568;BMP280;9930;49.240;8.548;2023-10-13T13:57:57;99863.47;;;29.83
19568;BMP280;9930;49.240;8.548;2023-10-13T14:00:25;99852.09;;;29.82
19568;BMP280;9930;49.240;8.548;2023-10-13T14:03:07;99836.72;;;29.75
19568;BMP280;9930;49.240;8.548;2023-10-13T14:05:53;99839.50;;;29.72
19568;BMP280;9930;49.240;8.548;2023-10-13T14:08:25;99837.72;;;29.72
19568;BMP280;9930;49.240;8.548;2023-10-13T14:10:56;99822.03;;;29.71
19568;BMP280;9930;49.240;8.548;2023-10-13T14:13:51;99837.09;;;29.67
19568;BMP280;9930;49.240;8.548;2023-10-13T14:16:23;99824.88;;;29.66
19568;BMP280;9930;49.240;8.548;2023-10-13T14:18:51;99832.84;;;29.64
19568;BMP280;9930;49.240;8.548;2023-10-13T14:21:22;99816.69;;;29.55
19568;BMP280;9930;49.240;8.548;2023-10-13T14:23:53;99826.34;;;29.54
19568;BMP280;9930;49.240;8.548;2023-10-13T14:26:20;99806.63;;;29.46
19568;BMP280;9930;49.240;8.548;2023-10-13T14:28:48;99801.66;;;29.40
19568;BMP280;9930;49.240;8.548;2023-10-13T14:31:36;99798.25;;;29.38
19568;BMP280;9930;49.240;8.548;2023-10-13T14:34:03;99811.22;;;29.41
19568;BMP280;9930;49.240;8.548;2023-10-13T14:36:31;99808.59;;;29.41
19568;BMP280;9930;49.240;8.548;2023-10-13T14:39:01;99795.47;;;29.41
19568;BMP280;9930;49.240;8.548;2023-10-13T14:41:30;99797.97;;;29.44
19568;BMP280;9930;49.240;8.548;2023-10-13T14:43:58;99795.28;;;29.45
19568;BMP280;9930;49.240;8.548;2023-10-13T14:46:33;99771.06;;;29.39
19568;BMP280;9930;49.240;8.548;2023-10-13T14:49:02;99788.09;;;29.49
19568;BMP280;9930;49.240;8.548;2023-10-13T14:51:28;99761.31;;;29.41
19568;BMP280;9930;49.240;8.548;2023-10-13T14:53:59;99770.69;;;29.46
19568;BMP280;9930;49.240;8.548;2023-10-13T14:56:27;99763.59;;;29.48
19568;BMP280;9930;49.240;8.548;2023-10-13T14:58:55;99774.56;;;29.56
19568;BMP280;9930;49.240;8.548;2023-10-13T15:01:26;99757.19;;;29.54
19568;BMP280;9930;49.240;8.548;2023-10-13T15:03:55;99769.06;;;29.61
19568;BMP280;9930;49.240;8.548;2023-10-13T15:06:24;99744.88;;;29.54
19568;BMP280;9930;49.240;8.548;2023-10-13T15:08:58;99761.97;;;29.63
19568;BMP280;9930;49.240;8.548;2023-10-13T15:11:26;99743.31;;;29.68
19568;BMP280;9930;49.240;8.548;2023-10-13T15:14:05;99730.34;;;29.64
19568;BMP280;9930;49.240;8.548;2023-10-13T15:16:34;99734.59;;;29.67